createdAt,value
2022-12-03T00:11:02.228Z,33.70
2022-12-03T00:26:05.259Z,27.80
2022-12-03T00:41:07.707Z,50.30
2022-12-03T00:56:10.383Z,32.90
2022-12-03T01:11:32.122Z,28.20
2022-12-03T01:26:34.544Z,29.50
2022-12-03T01:41:38.478Z,37.70
2022-12-03T01:56:41.228Z,35.90
2022-12-03T02:11:50.528Z,27.00
2022-12-03T02:26:53.007Z,15.20
2022-12-03T02:42:13.979Z,28.10
2022-12-03T02:57:17.018Z,20.10
2022-12-03T03:12:19.830Z,42.90
2022-12-03T03:27:22.343Z,26.20
2022-12-03T03:42:25.233Z,24.10
2022-12-03T03:57:27.675Z,29.50
2022-12-03T04:12:49.159Z,26.50
2022-12-03T04:28:24.602Z,40.00
2022-12-03T04:43:28.822Z,26.90
2022-12-03T04:58:31.213Z,31.20
2022-12-03T05:13:48.505Z,22.60
2022-12-03T05:44:07.910Z,24.90
2022-12-03T05:59:10.757Z,47.90
2022-12-03T06:14:13.632Z,28.30
2022-12-03T06:29:30.727Z,29.90
2022-12-03T06:44:34.060Z,36.10
2022-12-03T06:59:36.985Z,37.20
2022-12-03T07:14:40.033Z,24.00
2022-12-03T07:29:42.947Z,31.50
2022-12-03T07:44:45.793Z,32.00
2022-12-03T07:59:48.603Z,26.10
2022-12-03T08:14:52.268Z,35.40
2022-12-03T08:30:14.195Z,24.30
2022-12-03T08:45:42.628Z,26.40
2022-12-03T09:00:45.674Z,36.30
2022-12-03T09:31:20.270Z,29.80
2022-12-03T09:46:39.408Z,36.90
2022-12-03T10:01:42.205Z,34.50
2022-12-03T10:16:59.834Z,27.50
2022-12-03T10:32:08.168Z,48.20
2022-12-03T10:47:13.998Z,32.70
2022-12-03T11:02:24.166Z,34.10
2022-12-03T11:17:40.747Z,51.20
2022-12-03T11:33:01.137Z,44.30
2022-12-03T11:48:14.083Z,38.80
2022-12-03T12:03:27.646Z,26.40
2022-12-03T12:18:55.186Z,49.10
2022-12-03T12:33:58.681Z,42.50
2022-12-03T12:49:01.700Z,42.10
2022-12-03T13:04:22.359Z,52.30
2022-12-03T13:19:46.076Z,56.40
2022-12-03T13:34:50.328Z,45.20
2022-12-03T13:49:57.873Z,40.50
2022-12-03T14:05:01.006Z,73.40
2022-12-03T14:20:19.954Z,43.20
2022-12-03T14:35:22.754Z,49.00
2022-12-03T14:50:25.838Z,62.30
2022-12-03T15:05:29.311Z,57.50
2022-12-03T15:20:35.167Z,50.80
2022-12-03T15:50:40.774Z,71.10
2022-12-03T16:05:43.648Z,70.70
2022-12-03T16:20:46.723Z,56.20
2022-12-03T16:35:49.947Z,59.70
2022-12-03T16:50:53.316Z,66.60
2022-12-03T17:05:56.267Z,67.50
2022-12-03T17:20:59.740Z,51.50
2022-12-03T17:36:03.518Z,55.80
2022-12-03T17:51:06.558Z,65.90
2022-12-03T18:06:09.402Z,68.60
2022-12-03T18:21:13.769Z,60.60
2022-12-03T18:36:36.645Z,74.80
2022-12-03T18:51:39.749Z,65.90
2022-12-03T19:06:42.678Z,78.20
2022-12-03T19:21:46.989Z,53.10
2022-12-03T19:36:54.731Z,44.00
2022-12-03T19:51:58.886Z,65.60
2022-12-03T20:07:02.045Z,53.90
2022-12-03T20:22:05.346Z,72.80
2022-12-03T20:37:08.958Z,55.70
2022-12-03T20:52:12.272Z,77.40
2022-12-03T21:07:15.070Z,60.90
2022-12-03T21:22:18.353Z,60.50
2022-12-03T21:37:21.755Z,59.40
2022-12-03T21:52:24.689Z,53.90
2022-12-03T22:07:27.792Z,65.30
2022-12-03T22:22:31.423Z,51.50
2022-12-03T22:37:34.591Z,53.00
2022-12-03T22:52:37.431Z,74.10
2022-12-03T23:07:40.328Z,55.90
2022-12-03T23:22:43.815Z,64.60
2022-12-03T23:37:46.907Z,46.50
2022-12-03T23:52:50.053Z,57.30
